Airfield :







YOU CAN JOIN US ON...

 
LOGIN :

Register | Disclaimer

   EN    FR    IT 

 









Legend :    VFR   Marginal VFR   IFR   Intensive IFR   Very Intensive IFR
Visi :
Ceiling :
>= 8 km
>= 3000ft
5 to 8 km
1000 to 3000 ft
1500m to 5 km
500 to 1000 ft
800 to 1500m
200 to 500 ft
< 800m
< 200 ft
Symbols :   Thunderstorms  Fog  Heavy snow  Heavy precipitations  Wind > 20 kt






- Airport Elevation : 72 ft
- IATA code : YDF


CYDF - Deer Lake

CURRENT METAR :
  • 192200Z 25012G19KT 10SM -SN BKN023 OVC051 M02/M04 A2937 RMK SC6SC2 /S01/ SLP950

EXPIRED METARs :
  • 192100Z 25016G22KT 10SM -SN BKN020 OVC054 M02/M04 A2937 RMK SC6SC2 SLP950
  • 192000Z 25016G27KT 6SM -SN BKN017 OVC050 M01/M04 A2936 RMK SC5SC3 SLP944

TAF TAF CYDF
Valid from the 19 at 20:00 until the 20 at 08:00 UTC


191940Z 1920/2008 24020G30KT 6SM -SN SCT012 OVC060
TEMPO 1920/2006 21/2SM -SHSN OVC012
FM200600 24018G28KT P6SM BKN040
TEMPO 2006/2008 4SM -SHSN BKN020 RMK NXT FCST BY 200200Z



MET'MAP, your aeronautical weather chart ! - Copyright ORBIFLY December 2007 - Disclaimer

ORBIFLY MET'MAP TEAM :

Programming & Development : Alexandra Zaïnal
Concept & original design : Baudouin d'Aumeries
Assistance for programming : Marc-Olivier Méhu
Technical & hardware support : Manuel Goepfert

Contact : metmap@orbifly.com




SOURCES & CREDITS :

   NOAA